sensor_id;sensor_type;location;lat;lon;timestamp;pressure;altitude;pressure_sealevel;temperature;humidity
77574;BME280;66710;48.868;9.080;2024-02-28T00:01:37;97990.28;;;6.06;81.67
77574;BME280;66710;48.868;9.080;2024-02-28T00:04:02;97986.19;;;6.03;82.27
77574;BME280;66710;48.868;9.080;2024-02-28T00:06:27;97987.22;;;6.02;82.24
77574;BME280;66710;48.868;9.080;2024-02-28T00:08:52;97983.53;;;5.97;82.29
77574;BME280;66710;48.868;9.080;2024-02-28T00:11:20;97979.44;;;5.87;82.51
77574;BME280;66710;48.868;9.080;2024-02-28T00:13:45;97974.13;;;5.81;82.20
77574;BME280;66710;48.868;9.080;2024-02-28T00:16:10;97980.09;;;5.70;82.36
77574;BME280;66710;48.868;9.080;2024-02-28T00:18:36;97974.16;;;5.68;82.57
77574;BME280;66710;48.868;9.080;2024-02-28T00:21:02;97983.19;;;5.67;81.82
77574;BME280;66710;48.868;9.080;2024-02-28T00:23:28;97990.16;;;5.61;81.54
77574;BME280;66710;48.868;9.080;2024-02-28T00:25:54;97984.66;;;5.56;81.46
77574;BME280;66710;48.868;9.080;2024-02-28T00:28:19;97992.25;;;5.52;81.34
77574;BME280;66710;48.868;9.080;2024-02-28T00:30:44;98000.44;;;5.44;82.09
77574;BME280;66710;48.868;9.080;2024-02-28T00:33:10;97995.56;;;5.34;82.56
77574;BME280;66710;48.868;9.080;2024-02-28T00:35:35;98000.88;;;5.34;82.29
77574;BME280;66710;48.868;9.080;2024-02-28T00:38:00;98002.50;;;5.35;82.81
77574;BME280;66710;48.868;9.080;2024-02-28T00:40:26;98002.09;;;5.32;81.99
77574;BME280;66710;48.868;9.080;2024-02-28T00:42:51;98008.25;;;5.32;83.04
77574;BME280;66710;48.868;9.080;2024-02-28T00:45:17;98009.47;;;5.36;82.95
77574;BME280;66710;48.868;9.080;2024-02-28T00:47:42;98013.16;;;5.42;83.63
77574;BME280;66710;48.868;9.080;2024-02-28T00:50:08;98014.41;;;5.46;83.97
77574;BME280;66710;48.868;9.080;2024-02-28T00:52:33;98011.09;;;5.44;84.32
77574;BME280;66710;48.868;9.080;2024-02-28T00:54:59;98006.59;;;5.45;84.41
77574;BME280;66710;48.868;9.080;2024-02-28T00:57:24;98013.16;;;5.42;84.51
77574;BME280;66710;48.868;9.080;2024-02-28T00:59:50;98004.34;;;5.42;84.58
77574;BME280;66710;48.868;9.080;2024-02-28T01:02:15;98003.94;;;5.38;84.18
77574;BME280;66710;48.868;9.080;2024-02-28T01:04:41;98003.94;;;5.31;84.58
77574;BME280;66710;48.868;9.080;2024-02-28T01:07:06;98011.13;;;5.31;84.43
77574;BME280;66710;48.868;9.080;2024-02-28T01:09:31;98015.22;;;5.27;85.17
77574;BME280;66710;48.868;9.080;2024-02-28T01:11:57;98006.19;;;5.21;85.10
77574;BME280;66710;48.868;9.080;2024-02-28T01:14:22;98007.84;;;5.16;85.73
77574;BME280;66710;48.868;9.080;2024-02-28T01:16:47;98008.84;;;5.15;85.42
77574;BME280;66710;48.868;9.080;2024-02-28T01:19:15;98008.03;;;5.14;85.65
77574;BME280;66710;48.868;9.080;2024-02-28T01:21:40;98009.06;;;5.13;85.08
77574;BME280;66710;48.868;9.080;2024-02-28T01:24:05;98012.75;;;5.12;85.19
77574;BME280;66710;48.868;9.080;2024-02-28T01:26:31;98016.47;;;5.11;85.05
77574;BME280;66710;48.868;9.080;2024-02-28T01:28:56;98003.97;;;5.05;85.29
77574;BME280;66710;48.868;9.080;2024-02-28T01:31:22;98015.22;;;5.07;85.21
77574;BME280;66710;48.868;9.080;2024-02-28T01:33:47;98011.94;;;5.05;85.26
77574;BME280;66710;48.868;9.080;2024-02-28T01:36:12;98013.97;;;5.03;85.51
77574;BME280;66710;48.868;9.080;2024-02-28T01:38:38;98008.25;;;5.06;85.04
77574;BME280;66710;48.868;9.080;2024-02-28T01:41:03;98008.47;;;5.04;85.12
77574;BME280;66710;48.868;9.080;2024-02-28T01:43:30;98010.91;;;5.06;85.37
77574;BME280;66710;48.868;9.080;2024-02-28T01:45:56;98013.97;;;5.03;85.34
77574;BME280;66710;48.868;9.080;2024-02-28T01:48:21;98013.97;;;5.03;85.24
77574;BME280;66710;48.868;9.080;2024-02-28T01:50:47;98023.81;;;5.09;84.75
77574;BME280;66710;48.868;9.080;2024-02-28T01:53:12;98021.34;;;5.07;84.58
77574;BME280;66710;48.868;9.080;2024-02-28T01:55:39;98032.44;;;5.11;84.67
77574;BME280;66710;48.868;9.080;2024-02-28T01:58:05;98027.28;;;5.09;84.86
77574;BME280;66710;48.868;9.080;2024-02-28T02:00:34;98025.06;;;5.13;84.49
77574;BME280;66710;48.868;9.080;2024-02-28T02:03:03;98034.88;;;5.06;85.16
77574;BME280;66710;48.868;9.080;2024-02-28T02:05:29;98034.88;;;5.06;84.70
77574;BME280;66710;48.868;9.080;2024-02-28T02:07:56;98034.25;;;4.97;85.24
77574;BME280;66710;48.868;9.080;2024-02-28T02:10:22;98028.31;;;5.02;84.56
77574;BME280;66710;48.868;9.080;2024-02-28T02:12:48;98037.34;;;5.07;84.68
77574;BME280;66710;48.868;9.080;2024-02-28T02:15:13;98042.44;;;5.02;84.90
77574;BME280;66710;48.868;9.080;2024-02-28T02:17:39;98047.78;;;5.02;85.28
77574;BME280;66710;48.868;9.080;2024-02-28T02:20:04;98047.78;;;5.02;84.79
77574;BME280;66710;48.868;9.080;2024-02-28T02:22:36;98046.94;;;4.95;84.91
77574;BME280;66710;48.868;9.080;2024-02-28T02:25:03;98052.06;;;4.97;84.76
77574;BME280;66710;48.868;9.080;2024-02-28T02:27:29;98052.06;;;4.90;85.38
77574;BME280;66710;48.868;9.080;2024-02-28T02:29:54;98055.38;;;4.99;84.85
77574;BME280;66710;48.868;9.080;2024-02-28T02:32:19;98063.75;;;5.02;85.04
77574;BME280;66710;48.868;9.080;2024-02-28T02:34:45;98065.59;;;5.02;84.85
77574;BME280;66710;48.868;9.080;2024-02-28T02:37:10;98059.44;;;5.01;84.96
77574;BME280;66710;48.868;9.080;2024-02-28T02:39:36;98063.56;;;5.04;84.83
77574;BME280;66710;48.868;9.080;2024-02-28T02:42:01;98067.66;;;5.00;85.02
77574;BME280;66710;48.868;9.080;2024-02-28T02:44:26;98069.66;;;4.91;85.58
77574;BME280;66710;48.868;9.080;2024-02-28T02:46:52;98074.00;;;4.92;85.45
77574;BME280;66710;48.868;9.080;2024-02-28T02:49:17;98071.31;;;4.92;85.72
77574;BME280;66710;48.868;9.080;2024-02-28T02:51:44;98074.16;;;4.91;85.23
77574;BME280;66710;48.868;9.080;2024-02-28T02:54:09;98078.69;;;4.97;85.50
77574;BME280;66710;48.868;9.080;2024-02-28T02:56:34;98084.44;;;4.94;85.62
77574;BME280;66710;48.868;9.080;2024-02-28T02:58:59;98095.47;;;4.91;85.81
77574;BME280;66710;48.868;9.080;2024-02-28T03:01:25;98094.84;;;4.89;85.80
77574;BME280;66710;48.868;9.080;2024-02-28T03:03:50;98087.91;;;4.94;85.35
77574;BME280;66710;48.868;9.080;2024-02-28T03:06:15;98095.91;;;4.94;85.89
77574;BME280;66710;48.868;9.080;2024-02-28T03:08:41;98095.91;;;4.94;85.69
77574;BME280;66710;48.868;9.080;2024-02-28T03:11:06;98096.09;;;4.93;85.55
77574;BME280;66710;48.868;9.080;2024-02-28T03:13:33;98092.59;;;4.86;85.72
77574;BME280;66710;48.868;9.080;2024-02-28T03:15:59;98101.19;;;4.88;85.58
77574;BME280;66710;48.868;9.080;2024-02-28T03:18:24;98103.66;;;4.89;85.80
77574;BME280;66710;48.868;9.080;2024-02-28T03:20:49;98100.78;;;4.84;85.72
77574;BME280;66710;48.868;9.080;2024-02-28T03:23:15;98104.03;;;4.79;85.68
77574;BME280;66710;48.868;9.080;2024-02-28T03:25:40;98117.38;;;4.86;85.63
77574;BME280;66710;48.868;9.080;2024-02-28T03:28:05;98122.47;;;4.81;85.96
77574;BME280;66710;48.868;9.080;2024-02-28T03:30:30;98120.00;;;4.79;85.55
77574;BME280;66710;48.868;9.080;2024-02-28T03:32:56;98121.22;;;4.77;85.93
77574;BME280;66710;48.868;9.080;2024-02-28T03:35:21;98131.84;;;4.70;86.45
77574;BME280;66710;48.868;9.080;2024-02-28T03:37:46;98138.81;;;4.71;86.06
77574;BME280;66710;48.868;9.080;2024-02-28T03:40:12;98131.84;;;4.70;86.29
77574;BME280;66710;48.868;9.080;2024-02-28T03:42:37;98134.31;;;4.72;86.07
77574;BME280;66710;48.868;9.080;2024-02-28T03:45:03;98143.13;;;4.72;85.75
77574;BME280;66710;48.868;9.080;2024-02-28T03:47:29;98149.47;;;4.71;86.07
77574;BME280;66710;48.868;9.080;2024-02-28T03:49:55;98150.69;;;4.69;86.18
77574;BME280;66710;48.868;9.080;2024-02-28T03:52:22;98155.81;;;4.70;86.42
77574;BME280;66710;48.868;9.080;2024-02-28T03:54:48;98160.09;;;4.71;86.25
77574;BME280;66710;48.868;9.080;2024-02-28T03:57:13;98162.97;;;4.70;86.17
77574;BME280;66710;48.868;9.080;2024-02-28T03:59:40;98165.19;;;4.66;86.53
77574;BME280;66710;48.868;9.080;2024-02-28T04:02:06;98169.91;;;4.64;86.34
77574;BME280;66710;48.868;9.080;2024-02-28T04:04:31;98176.25;;;4.63;86.78
77574;BME280;66710;48.868;9.080;2024-02-28T04:06:56;98175.59;;;4.61;86.62
77574;BME280;66710;48.868;9.080;2024-02-28T04:09:22;98181.75;;;4.62;86.40
77574;BME280;66710;48.868;9.080;2024-02-28T04:11:47;98186.06;;;4.63;86.49
77574;BME280;66710;48.868;9.080;2024-02-28T04:14:13;98176.03;;;4.65;86.92
77574;BME280;66710;48.868;9.080;2024-02-28T04:16:42;98177.03;;;4.57;86.66
77574;BME280;66710;48.868;9.080;2024-02-28T04:19:11;98176.63;;;4.60;86.41
77574;BME280;66710;48.868;9.080;2024-02-28T04:21:37;98177.44;;;4.61;86.56
77574;BME280;66710;48.868;9.080;2024-02-28T04:24:03;98177.44;;;4.61;86.45
77574;BME280;66710;48.868;9.080;2024-02-28T04:26:29;98183.44;;;4.69;86.01
77574;BME280;66710;48.868;9.080;2024-02-28T04:28:54;98179.28;;;4.60;85.97
77574;BME280;66710;48.868;9.080;2024-02-28T04:31:20;98187.50;;;4.65;86.08
77574;BME280;66710;48.868;9.080;2024-02-28T04:33:45;98182.97;;;4.59;86.27
77574;BME280;66710;48.868;9.080;2024-02-28T04:36:10;98187.84;;;4.55;85.96
77574;BME280;66710;48.868;9.080;2024-02-28T04:38:35;98198.50;;;4.55;86.23
77574;BME280;66710;48.868;9.080;2024-02-28T04:41:01;98192.34;;;4.55;85.99
77574;BME280;66710;48.868;9.080;2024-02-28T04:43:26;98197.66;;;4.48;86.67
77574;BME280;66710;48.868;9.080;2024-02-28T04:45:51;98195.63;;;4.50;86.02
77574;BME280;66710;48.868;9.080;2024-02-28T04:48:16;98198.09;;;4.52;86.48
77574;BME280;66710;48.868;9.080;2024-02-28T04:50:42;98197.88;;;4.53;86.47
77574;BME280;66710;48.868;9.080;2024-02-28T04:53:07;98193.13;;;4.49;86.07
77574;BME280;66710;48.868;9.080;2024-02-28T04:55:33;98205.44;;;4.50;86.56
77574;BME280;66710;48.868;9.080;2024-02-28T04:57:59;98204.22;;;4.52;86.85
77574;BME280;66710;48.868;9.080;2024-02-28T05:00:24;98210.97;;;4.55;86.28
77574;BME280;66710;48.868;9.080;2024-02-28T05:02:49;98207.91;;;4.51;86.94
77574;BME280;66710;48.868;9.080;2024-02-28T05:05:14;98210.78;;;4.50;86.44
77574;BME280;66710;48.868;9.080;2024-02-28T05:07:40;98212.41;;;4.51;86.05
77574;BME280;66710;48.868;9.080;2024-02-28T05:10:06;98207.09;;;4.51;86.59
77574;BME280;66710;48.868;9.080;2024-02-28T05:12:31;98209.50;;;4.46;86.46
77574;BME280;66710;48.868;9.080;2024-02-28T05:14:56;98212.38;;;4.44;86.40
77574;BME280;66710;48.868;9.080;2024-02-28T05:17:22;98208.25;;;4.42;86.83
77574;BME280;66710;48.868;9.080;2024-02-28T05:19:47;98208.03;;;4.43;86.90
77574;BME280;66710;48.868;9.080;2024-02-28T05:22:12;98206.41;;;4.42;86.81
77574;BME280;66710;48.868;9.080;2024-02-28T05:24:37;98210.91;;;4.42;86.81
77574;BME280;66710;48.868;9.080;2024-02-28T05:27:03;98204.56;;;4.43;86.77
77574;BME280;66710;48.868;9.080;2024-02-28T05:29:28;98205.38;;;4.43;86.78
77574;BME280;66710;48.868;9.080;2024-02-28T05:31:53;98199.66;;;4.40;86.09
77574;BME280;66710;48.868;9.080;2024-02-28T05:34:19;98206.97;;;4.38;86.63
77574;BME280;66710;48.868;9.080;2024-02-28T05:36:44;98211.09;;;4.40;86.82
77574;BME280;66710;48.868;9.080;2024-02-28T05:39:10;98219.66;;;4.36;86.93
77574;BME280;66710;48.868;9.080;2024-02-28T05:41:35;98227.44;;;4.37;86.80
77574;BME280;66710;48.868;9.080;2024-02-28T05:44:00;98231.31;;;4.35;86.67
77574;BME280;66710;48.868;9.080;2024-02-28T05:46:25;98227.22;;;4.32;86.83
77574;BME280;66710;48.868;9.080;2024-02-28T05:48:51;98239.50;;;4.33;87.26
77574;BME280;66710;48.868;9.080;2024-02-28T05:51:16;98233.94;;;4.28;86.89
77574;BME280;66710;48.868;9.080;2024-02-28T05:53:42;98223.31;;;4.28;87.06
77574;BME280;66710;48.868;9.080;2024-02-28T05:56:08;98232.69;;;4.24;86.89
77574;BME280;66710;48.868;9.080;2024-02-28T05:58:41;98241.47;;;4.24;87.01
77574;BME280;66710;48.868;9.080;2024-02-28T06:01:06;98237.59;;;4.20;87.00
77574;BME280;66710;48.868;9.080;2024-02-28T06:03:32;98243.28;;;4.17;87.16
77574;BME280;66710;48.868;9.080;2024-02-28T06:05:58;98245.31;;;4.15;87.35
77574;BME280;66710;48.868;9.080;2024-02-28T06:08:23;98249.41;;;4.18;87.03
77574;BME280;66710;48.868;9.080;2024-02-28T06:10:48;98253.91;;;4.17;87.23
77574;BME280;66710;48.868;9.080;2024-02-28T06:13:14;98256.19;;;4.20;86.82
77574;BME280;66710;48.868;9.080;2024-02-28T06:15:39;98262.94;;;4.23;86.51
77574;BME280;66710;48.868;9.080;2024-02-28T06:18:04;98271.75;;;4.23;87.16
77574;BME280;66710;48.868;9.080;2024-02-28T06:20:30;98267.44;;;4.22;86.98
77574;BME280;66710;48.868;9.080;2024-02-28T06:22:55;98274.44;;;4.30;86.80
77574;BME280;66710;48.868;9.080;2024-02-28T06:25:20;98265.03;;;4.27;86.89
77574;BME280;66710;48.868;9.080;2024-02-28T06:27:48;98281.81;;;4.28;86.47
77574;BME280;66710;48.868;9.080;2024-02-28T06:30:14;98278.94;;;4.29;86.81
77574;BME280;66710;48.868;9.080;2024-02-28T06:32:39;98283.00;;;4.25;86.42
77574;BME280;66710;48.868;9.080;2024-02-28T06:35:05;98284.66;;;4.26;86.11
77574;BME280;66710;48.868;9.080;2024-02-28T06:37:30;98291.19;;;4.24;86.54
77574;BME280;66710;48.868;9.080;2024-02-28T06:39:56;98291.63;;;4.27;86.71
77574;BME280;66710;48.868;9.080;2024-02-28T06:42:21;98297.38;;;4.31;86.74
77574;BME280;66710;48.868;9.080;2024-02-28T06:44:46;98303.69;;;4.30;86.73
77574;BME280;66710;48.868;9.080;2024-02-28T06:47:11;98301.72;;;5.43;84.43
77574;BME280;66710;48.868;9.080;2024-02-28T06:49:37;98306.13;;;5.83;84.46
77574;BME280;66710;48.868;9.080;2024-02-28T06:52:02;98302.31;;;6.06;86.43
77574;BME280;66710;48.868;9.080;2024-02-28T06:54:28;98301.28;;;6.60;82.54
77574;BME280;66710;48.868;9.080;2024-02-28T06:56:54;98305.09;;;5.71;80.83
77574;BME280;66710;48.868;9.080;2024-02-28T06:59:19;98306.75;;;5.85;82.06
77574;BME280;66710;48.868;9.080;2024-02-28T07:01:44;98301.91;;;6.49;81.38
77574;BME280;66710;48.868;9.080;2024-02-28T07:04:10;98317.59;;;5.77;81.24
77574;BME280;66710;48.868;9.080;2024-02-28T07:06:36;98315.59;;;5.31;82.65
77574;BME280;66710;48.868;9.080;2024-02-28T07:09:01;98314.03;;;6.18;80.54
77574;BME280;66710;48.868;9.080;2024-02-28T07:11:26;98319.78;;;5.54;82.85
77574;BME280;66710;48.868;9.080;2024-02-28T07:13:52;98328.41;;;5.15;82.29
77574;BME280;66710;48.868;9.080;2024-02-28T07:16:17;98333.47;;;5.03;82.36
77574;BME280;66710;48.868;9.080;2024-02-28T07:18:42;98333.34;;;5.11;82.04
77574;BME280;66710;48.868;9.080;2024-02-28T07:21:07;98332.53;;;4.82;83.15
77574;BME280;66710;48.868;9.080;2024-02-28T07:23:33;98336.56;;;4.72;84.05
77574;BME280;66710;48.868;9.080;2024-02-28T07:25:58;98337.34;;;4.66;84.80
77574;BME280;66710;48.868;9.080;2024-02-28T07:28:23;98340.81;;;4.66;84.47
77574;BME280;66710;48.868;9.080;2024-02-28T07:30:49;98347.16;;;4.65;84.22
77574;BME280;66710;48.868;9.080;2024-02-28T07:33:14;98347.00;;;4.73;84.19
77574;BME280;66710;48.868;9.080;2024-02-28T07:35:51;98349.91;;;4.78;84.01
77574;BME280;66710;48.868;9.080;2024-02-28T07:38:16;98356.81;;;4.73;84.15
77574;BME280;66710;48.868;9.080;2024-02-28T07:40:45;98366.47;;;4.74;84.31
77574;BME280;66710;48.868;9.080;2024-02-28T07:43:11;98381.56;;;4.67;83.95
77574;BME280;66710;48.868;9.080;2024-02-28T07:45:36;98375.41;;;4.66;84.08
77574;BME280;66710;48.868;9.080;2024-02-28T07:48:01;98375.41;;;4.66;85.06
77574;BME280;66710;48.868;9.080;2024-02-28T07:50:26;98374.78;;;4.64;84.38
77574;BME280;66710;48.868;9.080;2024-02-28T07:52:54;98376.09;;;4.75;84.07
77574;BME280;66710;48.868;9.080;2024-02-28T07:55:20;98379.53;;;4.69;83.80
77574;BME280;66710;48.868;9.080;2024-02-28T07:57:47;98382.00;;;4.70;84.17
77574;BME280;66710;48.868;9.080;2024-02-28T08:00:13;98392.84;;;4.69;84.38
77574;BME280;66710;48.868;9.080;2024-02-28T08:02:38;98391.78;;;4.63;85.25
77574;BME280;66710;48.868;9.080;2024-02-28T08:05:04;98394.19;;;4.58;85.26
77574;BME280;66710;48.868;9.080;2024-02-28T08:07:32;98394.19;;;4.58;84.76
77574;BME280;66710;48.868;9.080;2024-02-28T08:09:57;98392.78;;;4.62;84.60
77574;BME280;66710;48.868;9.080;2024-02-28T08:12:23;98391.88;;;4.76;84.57
77574;BME280;66710;48.868;9.080;2024-02-28T08:14:48;98393.50;;;4.77;84.49
77574;BME280;66710;48.868;9.080;2024-02-28T08:17:13;98398.47;;;4.80;84.41
77574;BME280;66710;48.868;9.080;2024-02-28T08:19:41;98394.00;;;4.88;84.46
77574;BME280;66710;48.868;9.080;2024-02-28T08:22:06;98396.72;;;4.94;84.09
77574;BME280;66710;48.868;9.080;2024-02-28T08:24:31;98399.53;;;4.86;84.09
77574;BME280;66710;48.868;9.080;2024-02-28T08:26:57;98404.09;;;4.92;83.64
77574;BME280;66710;48.868;9.080;2024-02-28T08:29:22;98404.91;;;4.93;83.80
77574;BME280;66710;48.868;9.080;2024-02-28T08:31:47;98407.91;;;4.83;84.51
77574;BME280;66710;48.868;9.080;2024-02-28T08:34:13;98404.75;;;5.01;83.33
77574;BME280;66710;48.868;9.080;2024-02-28T08:36:38;98405.53;;;4.95;83.32
77574;BME280;66710;48.868;9.080;2024-02-28T08:39:03;98403.06;;;4.93;83.95
77574;BME280;66710;48.868;9.080;2024-02-28T08:41:32;98405.31;;;4.96;83.53
77574;BME280;66710;48.868;9.080;2024-02-28T08:43:57;98402.31;;;5.06;83.38
77574;BME280;66710;48.868;9.080;2024-02-28T08:46:23;98404.78;;;5.07;83.40
77574;BME280;66710;48.868;9.080;2024-02-28T08:48:48;98408.34;;;5.21;83.01
77574;BME280;66710;48.868;9.080;2024-02-28T08:51:13;98409.63;;;5.25;83.21
77574;BME280;66710;48.868;9.080;2024-02-28T08:53:38;98402.47;;;5.32;82.54
77574;BME280;66710;48.868;9.080;2024-02-28T08:56:04;98409.44;;;5.33;82.52
77574;BME280;66710;48.868;9.080;2024-02-28T08:58:29;98413.50;;;5.23;82.99
77574;BME280;66710;48.868;9.080;2024-02-28T09:00:54;98416.31;;;5.49;82.22
77574;BME280;66710;48.868;9.080;2024-02-28T09:03:20;98421.59;;;5.43;82.12
77574;BME280;66710;48.868;9.080;2024-02-28T09:05:47;98429.16;;;5.39;82.07
77574;BME280;66710;48.868;9.080;2024-02-28T09:08:13;98425.66;;;5.38;82.18
77574;BME280;66710;48.868;9.080;2024-02-28T09:10:38;98431.03;;;5.45;81.94
77574;BME280;66710;48.868;9.080;2024-02-28T09:13:03;98434.66;;;5.31;82.62
77574;BME280;66710;48.868;9.080;2024-02-28T09:15:28;98431.16;;;5.30;82.16
77574;BME280;66710;48.868;9.080;2024-02-28T09:17:54;98428.78;;;5.42;81.50
77574;BME280;66710;48.868;9.080;2024-02-28T09:20:19;98429.53;;;5.29;83.10
77574;BME280;66710;48.868;9.080;2024-02-28T09:22:44;98432.44;;;5.34;81.92
77574;BME280;66710;48.868;9.080;2024-02-28T09:25:10;98436.31;;;5.38;82.03
77574;BME280;66710;48.868;9.080;2024-02-28T09:27:36;98435.00;;;5.56;81.66
77574;BME280;66710;48.868;9.080;2024-02-28T09:30:02;98431.19;;;5.72;80.93
77574;BME280;66710;48.868;9.080;2024-02-28T09:32:28;98429.66;;;5.56;81.64
77574;BME280;66710;48.868;9.080;2024-02-28T09:34:53;98431.41;;;5.70;81.08
77574;BME280;66710;48.868;9.080;2024-02-28T09:37:18;98420.75;;;5.77;80.74
77574;BME280;66710;48.868;9.080;2024-02-28T09:39:46;98420.75;;;5.77;81.77
77574;BME280;66710;48.868;9.080;2024-02-28T09:42:11;98419.53;;;5.79;80.78
77574;BME280;66710;48.868;9.080;2024-02-28T09:44:38;98417.69;;;5.86;80.60
77574;BME280;66710;48.868;9.080;2024-02-28T09:47:05;98422.91;;;5.95;80.68
77574;BME280;66710;48.868;9.080;2024-02-28T09:49:31;98426.41;;;6.02;79.52
77574;BME280;66710;48.868;9.080;2024-02-28T09:51:57;98426.25;;;6.16;79.60
77574;BME280;66710;48.868;9.080;2024-02-28T09:54:23;98435.06;;;6.17;79.72
77574;BME280;66710;48.868;9.080;2024-02-28T09:56:49;98427.06;;;6.24;79.64
77574;BME280;66710;48.868;9.080;2024-02-28T09:59:15;98431.19;;;6.20;78.99
77574;BME280;66710;48.868;9.080;2024-02-28T10:01:43;98432.00;;;6.20;79.54
77574;BME280;66710;48.868;9.080;2024-02-28T10:04:12;98427.94;;;6.24;78.58
77574;BME280;66710;48.868;9.080;2024-02-28T10:06:39;98435.53;;;6.34;78.23
77574;BME280;66710;48.868;9.080;2024-02-28T10:09:05;98436.31;;;6.21;78.47
77574;BME280;66710;48.868;9.080;2024-02-28T10:11:30;98445.44;;;6.60;77.60
77574;BME280;66710;48.868;9.080;2024-02-28T10:13:56;98444.75;;;6.25;78.40
77574;BME280;66710;48.868;9.080;2024-02-28T10:16:22;98444.19;;;6.42;78.30
77574;BME280;66710;48.868;9.080;2024-02-28T10:18:47;98443.13;;;6.30;78.95
77574;BME280;66710;48.868;9.080;2024-02-28T10:21:14;98448.47;;;6.37;77.56
77574;BME280;66710;48.868;9.080;2024-02-28T10:23:44;98446.59;;;6.24;77.51
77574;BME280;66710;48.868;9.080;2024-02-28T10:26:10;98455.66;;;6.43;76.89
77574;BME280;66710;48.868;9.080;2024-02-28T10:28:41;98451.53;;;6.40;76.29
77574;BME280;66710;48.868;9.080;2024-02-28T10:31:09;98460.00;;;6.64;76.37
77574;BME280;66710;48.868;9.080;2024-02-28T10:33:35;98469.41;;;6.47;76.24
77574;BME280;66710;48.868;9.080;2024-02-28T10:36:02;98472.88;;;6.34;75.88
77574;BME280;66710;48.868;9.080;2024-02-28T10:38:28;98473.09;;;6.32;75.68
77574;BME280;66710;48.868;9.080;2024-02-28T10:40:53;98478.38;;;6.19;76.03
77574;BME280;66710;48.868;9.080;2024-02-28T10:43:19;98479.19;;;6.13;74.62
77574;BME280;66710;48.868;9.080;2024-02-28T10:45:45;98484.09;;;6.16;74.58
77574;BME280;66710;48.868;9.080;2024-02-28T10:48:14;98476.41;;;6.48;74.10
77574;BME280;66710;48.868;9.080;2024-02-28T10:50:39;98476.75;;;6.25;74.42
77574;BME280;66710;48.868;9.080;2024-02-28T10:53:13;98479.28;;;6.53;73.91
77574;BME280;66710;48.868;9.080;2024-02-28T10:55:40;98484.22;;;6.42;75.35
77574;BME280;66710;48.868;9.080;2024-02-28T10:58:09;98486.19;;;6.27;75.95
77574;BME280;66710;48.868;9.080;2024-02-28T11:00:39;98496.69;;;6.35;75.57
77574;BME280;66710;48.868;9.080;2024-02-28T11:03:07;98500.78;;;6.31;75.70
77574;BME280;66710;48.868;9.080;2024-02-28T11:05:41;98499.16;;;6.30;75.83
77574;BME280;66710;48.868;9.080;2024-02-28T11:08:10;98502.22;;;6.27;77.40
77574;BME280;66710;48.868;9.080;2024-02-28T11:10:42;98508.56;;;6.20;76.10
77574;BME280;66710;48.868;9.080;2024-02-28T11:13:08;98508.75;;;6.18;76.67
77574;BME280;66710;48.868;9.080;2024-02-28T11:15:36;98503.81;;;6.22;76.40
77574;BME280;66710;48.868;9.080;2024-02-28T11:18:08;98507.28;;;6.15;76.20
77574;BME280;66710;48.868;9.080;2024-02-28T11:20:35;98514.91;;;6.19;75.96
77574;BME280;66710;48.868;9.080;2024-02-28T11:23:00;98520.94;;;5.93;76.71
77574;BME280;66710;48.868;9.080;2024-02-28T11:25:26;98519.75;;;6.02;76.94
77574;BME280;66710;48.868;9.080;2024-02-28T11:27:51;98517.50;;;6.05;76.38
77574;BME280;66710;48.868;9.080;2024-02-28T11:30:16;98515.72;;;6.12;76.20
77574;BME280;66710;48.868;9.080;2024-02-28T11:32:42;98512.78;;;6.01;76.18
77574;BME280;66710;48.868;9.080;2024-02-28T11:35:08;98507.81;;;5.98;76.67
77574;BME280;66710;48.868;9.080;2024-02-28T11:37:34;98512.13;;;5.99;76.28
77574;BME280;66710;48.868;9.080;2024-02-28T11:39:59;98516.94;;;6.16;75.61
77574;BME280;66710;48.868;9.080;2024-02-28T11:42:24;98509.31;;;6.07;75.45
77574;BME280;66710;48.868;9.080;2024-02-28T11:44:54;98512.22;;;6.12;75.54
77574;BME280;66710;48.868;9.080;2024-02-28T11:47:23;98510.81;;;6.29;74.97
77574;BME280;66710;48.868;9.080;2024-02-28T11:49:49;98509.34;;;6.13;75.53
77574;BME280;66710;48.868;9.080;2024-02-28T11:52:14;98507.31;;;6.22;74.16
77574;BME280;66710;48.868;9.080;2024-02-28T11:54:39;98513.28;;;6.24;75.43
77574;BME280;66710;48.868;9.080;2024-02-28T11:57:05;98503.25;;;6.33;74.43
77574;BME280;66710;48.868;9.080;2024-02-28T11:59:32;98505.13;;;6.46;74.05
77574;BME280;66710;48.868;9.080;2024-02-28T12:01:57;98507.00;;;6.45;74.26
77574;BME280;66710;48.868;9.080;2024-02-28T12:04:25;98509.69;;;6.52;73.42
77574;BME280;66710;48.868;9.080;2024-02-28T12:06:51;98508.88;;;6.58;73.64
77574;BME280;66710;48.868;9.080;2024-02-28T12:09:17;98504.78;;;6.62;74.85
77574;BME280;66710;48.868;9.080;2024-02-28T12:11:43;98509.63;;;6.32;73.53
77574;BME280;66710;48.868;9.080;2024-02-28T12:14:09;98509.09;;;6.02;74.52
77574;BME280;66710;48.868;9.080;2024-02-28T12:16:39;98497.44;;;6.16;74.87
77574;BME280;66710;48.868;9.080;2024-02-28T12:19:08;98500.94;;;6.23;74.65
77574;BME280;66710;48.868;9.080;2024-02-28T12:21:35;98500.78;;;6.31;75.48
77574;BME280;66710;48.868;9.080;2024-02-28T12:24:01;98494.47;;;6.46;74.50
77574;BME280;66710;48.868;9.080;2024-02-28T12:26:27;98494.25;;;6.40;74.49
77574;BME280;66710;48.868;9.080;2024-02-28T12:28:52;98485.44;;;6.47;73.51
77574;BME280;66710;48.868;9.080;2024-02-28T12:31:17;98489.97;;;6.53;73.48
77574;BME280;66710;48.868;9.080;2024-02-28T12:33:44;98490.38;;;6.50;73.59
77574;BME280;66710;48.868;9.080;2024-02-28T12:36:09;98493.44;;;6.53;73.71
77574;BME280;66710;48.868;9.080;2024-02-28T12:38:35;98476.00;;;6.51;73.69
77574;BME280;66710;48.868;9.080;2024-02-28T12:41:00;98485.84;;;6.43;74.11
77574;BME280;66710;48.868;9.080;2024-02-28T12:43:27;98487.88;;;6.41;73.80
77574;BME280;66710;48.868;9.080;2024-02-28T12:45:52;98486.00;;;6.29;73.92
77574;BME280;66710;48.868;9.080;2024-02-28T12:48:17;98482.53;;;6.35;74.67
77574;BME280;66710;48.868;9.080;2024-02-28T12:50:43;98475.56;;;6.40;73.90
77574;BME280;66710;48.868;9.080;2024-02-28T12:53:08;98476.00;;;6.51;73.77
77574;BME280;66710;48.868;9.080;2024-02-28T12:55:33;98479.69;;;6.50;73.75
77574;BME280;66710;48.868;9.080;2024-02-28T12:57:58;98479.94;;;6.61;72.85
77574;BME280;66710;48.868;9.080;2024-02-28T13:00:29;98463.22;;;6.33;74.49
77574;BME280;66710;48.868;9.080;2024-02-28T13:02:55;98471.72;;;6.63;73.22